sensor_id;sensor_type;location;lat;lon;timestamp;pressure;altitude;pressure_sealevel;temperature;humidity
29941;BME280;16801;53.562;10.038;2023-04-22T00:02:23;101301.00;;;13.13;42.26
29941;BME280;16801;53.562;10.038;2023-04-22T00:05:45;101286.81;;;13.06;42.24
29941;BME280;16801;53.562;10.038;2023-04-22T00:09:08;101296.09;;;13.02;42.29
29941;BME280;16801;53.562;10.038;2023-04-22T00:12:29;101288.97;;;13.02;42.01
29941;BME280;16801;53.562;10.038;2023-04-22T00:15:50;101280.88;;;12.96;42.57
29941;BME280;16801;53.562;10.038;2023-04-22T00:19:11;101269.28;;;12.97;42.77
29941;BME280;16801;53.562;10.038;2023-04-22T00:22:31;101269.78;;;12.92;42.52
29941;BME280;16801;53.562;10.038;2023-04-22T00:25:54;101261.19;;;12.90;42.94
29941;BME280;16801;53.562;10.038;2023-04-22T00:29:15;101259.34;;;12.99;41.97
29941;BME280;16801;53.562;10.038;2023-04-22T00:32:37;101255.84;;;12.98;42.35
29941;BME280;16801;53.562;10.038;2023-04-22T00:35:57;101252.72;;;12.95;42.58
29941;BME280;16801;53.562;10.038;2023-04-22T00:39:19;101245.78;;;12.94;42.60
29941;BME280;16801;53.562;10.038;2023-04-22T00:42:42;101249.00;;;12.81;42.54
29941;BME280;16801;53.562;10.038;2023-04-22T00:46:03;101248.81;;;12.83;42.34
29941;BME280;16801;53.562;10.038;2023-04-22T00:49:24;101242.34;;;12.85;42.60
29941;BME280;16801;53.562;10.038;2023-04-22T00:52:49;101240.72;;;12.84;43.04
29941;BME280;16801;53.562;10.038;2023-04-22T00:56:10;101233.59;;;12.85;43.24
29941;BME280;16801;53.562;10.038;2023-04-22T00:59:33;101231.59;;;12.87;42.47
29941;BME280;16801;53.562;10.038;2023-04-22T01:02:53;101230.13;;;12.84;42.70
29941;BME280;16801;53.562;10.038;2023-04-22T01:06:16;101229.13;;;12.85;42.99
29941;BME280;16801;53.562;10.038;2023-04-22T01:09:38;101230.13;;;12.84;43.11
29941;BME280;16801;53.562;10.038;2023-04-22T01:13:00;101225.16;;;12.81;42.90
29941;BME280;16801;53.562;10.038;2023-04-22T01:16:23;101225.81;;;12.83;42.92
29941;BME280;16801;53.562;10.038;2023-04-22T01:19:47;101224.63;;;12.86;43.25
29941;BME280;16801;53.562;10.038;2023-04-22T01:23:14;101225.97;;;12.82;42.99
29941;BME280;16801;53.562;10.038;2023-04-22T01:26:37;101215.88;;;12.85;43.20
29941;BME280;16801;53.562;10.038;2023-04-22T01:29:58;101215.03;;;12.85;43.05
29941;BME280;16801;53.562;10.038;2023-04-22T01:33:19;101207.44;;;12.82;43.29
29941;BME280;16801;53.562;10.038;2023-04-22T01:36:40;101208.09;;;12.84;43.61
29941;BME280;16801;53.562;10.038;2023-04-22T01:40:03;101205.97;;;12.79;43.46
29941;BME280;16801;53.562;10.038;2023-04-22T01:43:24;101200.19;;;12.76;43.63
29941;BME280;16801;53.562;10.038;2023-04-22T01:46:45;101201.84;;;12.77;43.55
29941;BME280;16801;53.562;10.038;2023-04-22T01:50:07;101195.41;;;12.71;43.68
29941;BME280;16801;53.562;10.038;2023-04-22T01:53:29;101192.56;;;12.73;43.59
29941;BME280;16801;53.562;10.038;2023-04-22T01:56:52;101187.78;;;12.68;44.22
29941;BME280;16801;53.562;10.038;2023-04-22T02:00:14;101188.97;;;12.65;43.78
29941;BME280;16801;53.562;10.038;2023-04-22T02:03:39;101184.22;;;12.61;44.54
29941;BME280;16801;53.562;10.038;2023-04-22T02:07:00;101187.19;;;12.58;44.09
29941;BME280;16801;53.562;10.038;2023-04-22T02:10:21;101178.44;;;12.57;44.25
29941;BME280;16801;53.562;10.038;2023-04-22T02:13:44;101175.13;;;12.55;44.37
29941;BME280;16801;53.562;10.038;2023-04-22T02:17:04;101175.94;;;12.56;44.48
29941;BME280;16801;53.562;10.038;2023-04-22T02:20:25;101170.81;;;12.54;44.80
29941;BME280;16801;53.562;10.038;2023-04-22T02:23:46;101161.56;;;12.50;45.05
29941;BME280;16801;53.562;10.038;2023-04-22T02:27:07;101158.09;;;12.50;45.01
29941;BME280;16801;53.562;10.038;2023-04-22T02:30:30;101159.25;;;12.47;44.99
29941;BME280;16801;53.562;10.038;2023-04-22T02:33:51;101150.56;;;12.39;45.03
29941;BME280;16801;53.562;10.038;2023-04-22T02:37:12;101157.03;;;12.36;45.39
29941;BME280;16801;53.562;10.038;2023-04-22T02:40:33;101155.38;;;12.35;45.97
29941;BME280;16801;53.562;10.038;2023-04-22T02:43:54;101144.78;;;12.35;45.61
29941;BME280;16801;53.562;10.038;2023-04-22T02:47:17;101135.53;;;12.31;45.70
29941;BME280;16801;53.562;10.038;2023-04-22T02:50:38;101131.72;;;12.33;45.88
29941;BME280;16801;53.562;10.038;2023-04-22T02:54:00;101130.41;;;12.29;46.09
29941;BME280;16801;53.562;10.038;2023-04-22T02:57:21;101127.28;;;12.26;46.11
29941;BME280;16801;53.562;10.038;2023-04-22T03:00:42;101132.72;;;12.24;45.96
29941;BME280;16801;53.562;10.038;2023-04-22T03:04:04;101134.06;;;12.20;46.22
29941;BME280;16801;53.562;10.038;2023-04-22T03:07:25;101137.75;;;12.19;46.22
29941;BME280;16801;53.562;10.038;2023-04-22T03:10:47;101134.34;;;11.94;46.17
29941;BME280;16801;53.562;10.038;2023-04-22T03:14:07;101119.75;;;12.07;47.06
29941;BME280;16801;53.562;10.038;2023-04-22T03:17:29;101119.75;;;12.07;46.65
29941;BME280;16801;53.562;10.038;2023-04-22T03:20:53;101104.88;;;12.06;46.94
29941;BME280;16801;53.562;10.038;2023-04-22T03:24:14;101100.09;;;12.01;47.49
29941;BME280;16801;53.562;10.038;2023-04-22T03:27:40;101096.28;;;12.04;47.06
29941;BME280;16801;53.562;10.038;2023-04-22T03:31:01;101099.75;;;12.04;47.32
29941;BME280;16801;53.562;10.038;2023-04-22T03:34:23;101101.56;;;12.04;47.35
29941;BME280;16801;53.562;10.038;2023-04-22T03:37:45;101105.03;;;12.04;47.13
29941;BME280;16801;53.562;10.038;2023-04-22T03:41:10;101095.13;;;11.98;47.72
29941;BME280;16801;53.562;10.038;2023-04-22T03:44:38;101102.94;;;11.91;47.70
29941;BME280;16801;53.562;10.038;2023-04-22T03:47:59;101094.19;;;11.91;47.95
29941;BME280;16801;53.562;10.038;2023-04-22T03:51:29;101092.69;;;11.96;47.71
29941;BME280;16801;53.562;10.038;2023-04-22T03:54:53;101087.19;;;11.98;47.86
29941;BME280;16801;53.562;10.038;2023-04-22T03:58:14;101084.91;;;11.95;47.93
29941;BME280;16801;53.562;10.038;2023-04-22T04:01:35;101075.16;;;11.95;47.80
29941;BME280;16801;53.562;10.038;2023-04-22T04:04:59;101065.03;;;11.99;48.20
29941;BME280;16801;53.562;10.038;2023-04-22T04:08:20;101067.84;;;11.97;47.96
29941;BME280;16801;53.562;10.038;2023-04-22T04:11:43;101066.09;;;11.90;48.22
29941;BME280;16801;53.562;10.038;2023-04-22T04:15:06;101070.22;;;11.84;48.14
29941;BME280;16801;53.562;10.038;2023-04-22T04:18:28;101067.94;;;11.81;48.35
29941;BME280;16801;53.562;10.038;2023-04-22T04:21:49;101070.72;;;11.88;48.65
29941;BME280;16801;53.562;10.038;2023-04-22T04:25:11;101061.28;;;11.93;48.41
29941;BME280;16801;53.562;10.038;2023-04-22T04:28:38;101071.31;;;11.98;48.17
29941;BME280;16801;53.562;10.038;2023-04-22T04:32:00;101056.19;;;11.84;48.71
29941;BME280;16801;53.562;10.038;2023-04-22T04:35:22;101056.66;;;11.87;48.64
29941;BME280;16801;53.562;10.038;2023-04-22T04:38:47;101051.19;;;11.97;48.74
29941;BME280;16801;53.562;10.038;2023-04-22T04:42:07;101044.69;;;11.99;48.39
29941;BME280;16801;53.562;10.038;2023-04-22T04:45:39;101051.81;;;11.99;48.62
29941;BME280;16801;53.562;10.038;2023-04-22T04:49:06;101053.84;;;11.89;48.72
29941;BME280;16801;53.562;10.038;2023-04-22T04:52:39;101046.25;;;11.86;49.04
29941;BME280;16801;53.562;10.038;2023-04-22T04:56:00;101048.81;;;12.02;48.91
29941;BME280;16801;53.562;10.038;2023-04-22T04:59:22;101062.84;;;12.11;47.92
29941;BME280;16801;53.562;10.038;2023-04-22T05:02:45;101042.66;;;12.18;48.28
29941;BME280;16801;53.562;10.038;2023-04-22T05:06:06;101039.81;;;12.19;48.15
29941;BME280;16801;53.562;10.038;2023-04-22T05:09:29;101050.34;;;12.27;48.53
29941;BME280;16801;53.562;10.038;2023-04-22T05:12:55;101037.75;;;12.29;48.51
29941;BME280;16801;53.562;10.038;2023-04-22T05:16:18;101039.91;;;12.34;48.51
29941;BME280;16801;53.562;10.038;2023-04-22T05:19:43;101042.44;;;12.50;48.00
29941;BME280;16801;53.562;10.038;2023-04-22T05:23:04;101055.66;;;12.50;47.52
29941;BME280;16801;53.562;10.038;2023-04-22T05:26:25;101059.97;;;12.20;48.31
29941;BME280;16801;53.562;10.038;2023-04-22T05:29:46;101048.97;;;12.40;48.27
29941;BME280;16801;53.562;10.038;2023-04-22T05:33:11;101040.06;;;12.55;48.20
29941;BME280;16801;53.562;10.038;2023-04-22T05:36:34;101023.59;;;12.68;47.85
29941;BME280;16801;53.562;10.038;2023-04-22T05:39:55;101019.41;;;12.74;47.27
29941;BME280;16801;53.562;10.038;2023-04-22T05:43:16;101035.66;;;12.71;47.19
29941;BME280;16801;53.562;10.038;2023-04-22T05:46:43;101031.94;;;12.80;47.15
29941;BME280;16801;53.562;10.038;2023-04-22T05:50:06;101031.50;;;12.91;46.71
29941;BME280;16801;53.562;10.038;2023-04-22T05:53:36;101033.09;;;13.00;47.11
29941;BME280;16801;53.562;10.038;2023-04-22T05:56:58;101023.38;;;12.92;46.74
29941;BME280;16801;53.562;10.038;2023-04-22T06:00:21;101023.13;;;12.87;46.76
29941;BME280;16801;53.562;10.038;2023-04-22T06:03:56;101020.84;;;12.99;46.86
29941;BME280;16801;53.562;10.038;2023-04-22T06:07:18;101015.84;;;13.04;46.29
29941;BME280;16801;53.562;10.038;2023-04-22T06:10:40;101033.06;;;13.23;46.34
29941;BME280;16801;53.562;10.038;2023-04-22T06:14:01;101023.28;;;13.38;46.34
29941;BME280;16801;53.562;10.038;2023-04-22T06:17:22;101034.19;;;13.43;46.07
29941;BME280;16801;53.562;10.038;2023-04-22T06:20:45;101023.03;;;13.48;46.03
29941;BME280;16801;53.562;10.038;2023-04-22T06:24:06;101027.06;;;13.29;46.01
29941;BME280;16801;53.562;10.038;2023-04-22T06:27:30;101018.56;;;13.48;45.82
29941;BME280;16801;53.562;10.038;2023-04-22T06:30:51;101015.63;;;13.58;46.01
29941;BME280;16801;53.562;10.038;2023-04-22T06:34:12;101009.94;;;13.61;45.96
29941;BME280;16801;53.562;10.038;2023-04-22T06:37:33;101026.13;;;13.66;45.28
29941;BME280;16801;53.562;10.038;2023-04-22T06:40:54;101015.25;;;13.61;45.34
29941;BME280;16801;53.562;10.038;2023-04-22T06:44:20;101016.53;;;13.65;45.45
29941;BME280;16801;53.562;10.038;2023-04-22T06:48:01;101012.88;;;13.66;45.55
29941;BME280;16801;53.562;10.038;2023-04-22T06:51:37;101023.75;;;13.71;45.60
29941;BME280;16801;53.562;10.038;2023-04-22T06:54:59;101015.06;;;13.77;45.72
29941;BME280;16801;53.562;10.038;2023-04-22T06:58:21;101013.56;;;13.89;45.61
29941;BME280;16801;53.562;10.038;2023-04-22T07:01:44;101012.19;;;13.93;45.50
29941;BME280;16801;53.562;10.038;2023-04-22T07:05:05;101004.75;;;14.03;45.34
29941;BME280;16801;53.562;10.038;2023-04-22T07:08:27;101013.66;;;13.96;45.45
29941;BME280;16801;53.562;10.038;2023-04-22T07:11:47;101002.25;;;14.17;45.05
29941;BME280;16801;53.562;10.038;2023-04-22T07:15:13;100998.22;;;14.21;45.31
29941;BME280;16801;53.562;10.038;2023-04-22T07:18:35;100998.44;;;14.41;45.20
29941;BME280;16801;53.562;10.038;2023-04-22T07:21:57;101005.06;;;14.51;44.94
29941;BME280;16801;53.562;10.038;2023-04-22T07:25:18;100994.13;;;14.40;45.11
29941;BME280;16801;53.562;10.038;2023-04-22T07:28:39;100989.38;;;14.35;45.31
29941;BME280;16801;53.562;10.038;2023-04-22T07:31:59;100988.50;;;14.49;45.05
29941;BME280;16801;53.562;10.038;2023-04-22T07:35:22;100978.69;;;14.71;44.58
29941;BME280;16801;53.562;10.038;2023-04-22T07:38:43;100983.09;;;14.85;44.89
29941;BME280;16801;53.562;10.038;2023-04-22T07:42:04;100981.97;;;15.01;44.55
29941;BME280;16801;53.562;10.038;2023-04-22T07:45:26;100988.94;;;15.02;45.14
29941;BME280;16801;53.562;10.038;2023-04-22T07:48:46;100979.19;;;15.09;44.54
29941;BME280;16801;53.562;10.038;2023-04-22T07:52:09;100972.59;;;15.39;44.29
29941;BME280;16801;53.562;10.038;2023-04-22T07:55:30;100979.09;;;15.30;44.19
29941;BME280;16801;53.562;10.038;2023-04-22T07:58:51;100974.91;;;15.49;44.58
29941;BME280;16801;53.562;10.038;2023-04-22T08:02:12;100957.44;;;15.40;44.60
29941;BME280;16801;53.562;10.038;2023-04-22T08:05:33;100966.72;;;15.51;44.60
29941;BME280;16801;53.562;10.038;2023-04-22T08:08:55;100963.44;;;15.49;44.49
29941;BME280;16801;53.562;10.038;2023-04-22T08:12:16;100957.72;;;15.99;44.01
29941;BME280;16801;53.562;10.038;2023-04-22T08:15:37;100957.91;;;15.91;43.95
29941;BME280;16801;53.562;10.038;2023-04-22T08:18:58;100938.69;;;16.02;44.23
29941;BME280;16801;53.562;10.038;2023-04-22T08:22:19;100952.84;;;16.16;43.62
29941;BME280;16801;53.562;10.038;2023-04-22T08:25:41;100951.81;;;16.30;43.39
29941;BME280;16801;53.562;10.038;2023-04-22T08:29:02;100942.00;;;16.18;43.47
29941;BME280;16801;53.562;10.038;2023-04-22T08:32:23;100949.56;;;16.27;43.38
29941;BME280;16801;53.562;10.038;2023-04-22T08:35:45;100956.53;;;16.28;43.52
29941;BME280;16801;53.562;10.038;2023-04-22T08:39:06;100945.09;;;16.48;43.41
29941;BME280;16801;53.562;10.038;2023-04-22T08:42:28;100939.56;;;16.75;43.25
29941;BME280;16801;53.562;10.038;2023-04-22T08:45:49;100952.47;;;16.98;42.55
29941;BME280;16801;53.562;10.038;2023-04-22T08:49:11;100944.03;;;17.08;42.28
29941;BME280;16801;53.562;10.038;2023-04-22T08:52:33;100933.94;;;17.30;42.39
29941;BME280;16801;53.562;10.038;2023-04-22T08:55:54;100943.09;;;17.40;42.18
29941;BME280;16801;53.562;10.038;2023-04-22T08:59:17;100932.91;;;17.18;42.62
29941;BME280;16801;53.562;10.038;2023-04-22T09:02:40;100939.47;;;17.35;42.70
29941;BME280;16801;53.562;10.038;2023-04-22T09:06:04;100941.72;;;17.25;43.23
29941;BME280;16801;53.562;10.038;2023-04-22T09:09:25;100931.59;;;17.47;42.85
29941;BME280;16801;53.562;10.038;2023-04-22T09:12:47;100935.50;;;17.44;43.02
29941;BME280;16801;53.562;10.038;2023-04-22T09:16:10;100933.84;;;17.50;42.76
29941;BME280;16801;53.562;10.038;2023-04-22T09:19:31;100935.19;;;17.79;42.75
29941;BME280;16801;53.562;10.038;2023-04-22T09:22:52;100936.09;;;17.97;42.72
29941;BME280;16801;53.562;10.038;2023-04-22T09:26:13;100919.78;;;18.12;41.92
29941;BME280;16801;53.562;10.038;2023-04-22T09:29:36;100921.34;;;18.26;42.27
29941;BME280;16801;53.562;10.038;2023-04-22T09:33:00;100934.63;;;18.33;41.61
29941;BME280;16801;53.562;10.038;2023-04-22T09:36:22;100913.53;;;18.25;39.74
29941;BME280;16801;53.562;10.038;2023-04-22T09:39:43;100906.81;;;18.40;40.26
29941;BME280;16801;53.562;10.038;2023-04-22T09:43:08;100915.47;;;18.67;40.17
29941;BME280;16801;53.562;10.038;2023-04-22T09:46:30;100906.03;;;18.58;40.01
29941;BME280;16801;53.562;10.038;2023-04-22T09:49:53;100904.78;;;18.67;39.46
29941;BME280;16801;53.562;10.038;2023-04-22T09:53:15;100907.97;;;18.76;39.95
29941;BME280;16801;53.562;10.038;2023-04-22T09:56:41;100892.91;;;18.82;39.23
29941;BME280;16801;53.562;10.038;2023-04-22T10:00:04;100887.28;;;18.90;39.31
29941;BME280;16801;53.562;10.038;2023-04-22T10:03:26;100889.78;;;19.03;39.46
29941;BME280;16801;53.562;10.038;2023-04-22T10:06:49;100885.63;;;19.07;39.25
29941;BME280;16801;53.562;10.038;2023-04-22T10:10:10;100886.41;;;19.44;39.69
29941;BME280;16801;53.562;10.038;2023-04-22T10:13:31;100880.50;;;19.72;38.53
29941;BME280;16801;53.562;10.038;2023-04-22T10:16:57;100871.94;;;19.93;38.09
29941;BME280;16801;53.562;10.038;2023-04-22T10:20:19;100866.50;;;20.00;37.78
29941;BME280;16801;53.562;10.038;2023-04-22T10:23:46;100864.56;;;20.30;38.06
29941;BME280;16801;53.562;10.038;2023-04-22T10:27:09;100860.91;;;20.01;37.73
29941;BME280;16801;53.562;10.038;2023-04-22T10:30:31;100860.38;;;20.23;37.22
29941;BME280;16801;53.562;10.038;2023-04-22T10:34:08;100853.88;;;20.42;38.11
29941;BME280;16801;53.562;10.038;2023-04-22T10:37:29;100851.28;;;20.82;36.53
29941;BME280;16801;53.562;10.038;2023-04-22T10:40:59;100853.13;;;20.81;35.71
29941;BME280;16801;53.562;10.038;2023-04-22T10:44:21;100847.34;;;20.73;36.54
29941;BME280;16801;53.562;10.038;2023-04-22T10:47:42;100851.66;;;20.74;35.99
29941;BME280;16801;53.562;10.038;2023-04-22T10:51:03;100840.34;;;20.72;36.49
29941;BME280;16801;53.562;10.038;2023-04-22T10:54:56;100831.50;;;21.11;36.77
29941;BME280;16801;53.562;10.038;2023-04-22T10:58:19;100825.75;;;21.31;35.02
29941;BME280;16801;53.562;10.038;2023-04-22T11:01:41;100828.69;;;21.46;35.68
29941;BME280;16801;53.562;10.038;2023-04-22T11:05:19;100816.13;;;21.64;34.61
29941;BME280;16801;53.562;10.038;2023-04-22T11:08:43;100816.03;;;21.59;34.24
29941;BME280;16801;53.562;10.038;2023-04-22T11:16:07;100797.69;;;22.17;34.41
29941;BME280;16801;53.562;10.038;2023-04-22T11:19:28;100793.84;;;22.30;33.93
29941;BME280;16801;53.562;10.038;2023-04-22T11:22:50;100789.38;;;22.19;32.46
29941;BME280;16801;53.562;10.038;2023-04-22T11:26:11;100790.78;;;22.43;31.99
29941;BME280;16801;53.562;10.038;2023-04-22T11:29:32;100779.56;;;22.68;31.50
29941;BME280;16801;53.562;10.038;2023-04-22T11:32:55;100777.38;;;22.65;32.49
29941;BME280;16801;53.562;10.038;2023-04-22T11:36:17;100777.44;;;22.70;32.07
29941;BME280;16801;53.562;10.038;2023-04-22T11:39:40;100768.38;;;22.76;31.55
29941;BME280;16801;53.562;10.038;2023-04-22T11:43:02;100752.13;;;23.69;30.10
29941;BME280;16801;53.562;10.038;2023-04-22T11:46:27;100760.81;;;24.18;30.03
29941;BME280;16801;53.562;10.038;2023-04-22T11:49:58;100767.03;;;24.18;29.02
29941;BME280;16801;53.562;10.038;2023-04-22T11:53:21;100757.06;;;24.61;27.88
29941;BME280;16801;53.562;10.038;2023-04-22T11:56:42;100751.75;;;28.15;23.73
29941;BME280;16801;53.562;10.038;2023-04-22T12:00:04;100757.34;;;28.96;21.58
29941;BME280;16801;53.562;10.038;2023-04-22T12:03:26;100743.19;;;28.03;22.86
29941;BME280;16801;53.562;10.038;2023-04-22T12:06:50;100729.06;;;30.40;20.32
29941;BME280;16801;53.562;10.038;2023-04-22T12:10:11;100726.69;;;31.47;18.75
29941;BME280;16801;53.562;10.038;2023-04-22T12:13:39;100726.56;;;30.71;19.09
29941;BME280;16801;53.562;10.038;2023-04-22T12:17:02;100722.63;;;31.00;18.81
29941;BME280;16801;53.562;10.038;2023-04-22T12:20:23;100721.31;;;31.55;18.63
29941;BME280;16801;53.562;10.038;2023-04-22T12:23:48;100717.16;;;31.80;18.19
29941;BME280;16801;53.562;10.038;2023-04-22T12:27:09;100715.97;;;30.42;19.87
29941;BME280;16801;53.562;10.038;2023-04-22T12:30:30;100720.19;;;30.48;19.83
29941;BME280;16801;53.562;10.038;2023-04-22T12:33:51;100705.28;;;30.18;20.20
29941;BME280;16801;53.562;10.038;2023-04-22T12:37:13;100709.28;;;30.07;20.40
29941;BME280;16801;53.562;10.038;2023-04-22T12:40:36;100697.72;;;30.02;21.03
29941;BME280;16801;53.562;10.038;2023-04-22T12:43:56;100690.13;;;29.01;21.91
29941;BME280;16801;53.562;10.038;2023-04-22T12:47:18;100699.13;;;28.78;22.01
29941;BME280;16801;53.562;10.038;2023-04-22T12:50:39;100698.59;;;27.85;23.18
29941;BME280;16801;53.562;10.038;2023-04-22T12:54:00;100673.97;;;27.48;24.18
29941;BME280;16801;53.562;10.038;2023-04-22T12:57:24;100687.38;;;28.45;22.47
29941;BME280;16801;53.562;10.038;2023-04-22T13:00:45;100683.69;;;29.48;20.97
29941;BME280;16801;53.562;10.038;2023-04-22T13:04:06;100677.13;;;29.49;20.83
29941;BME280;16801;53.562;10.038;2023-04-22T13:07:27;100672.94;;;29.84;20.85
29941;BME280;16801;53.562;10.038;2023-04-22T13:10:48;100676.41;;;28.50;22.25
29941;BME280;16801;53.562;10.038;2023-04-22T13:14:10;100682.88;;;28.35;22.73
29941;BME280;16801;53.562;10.038;2023-04-22T13:17:31;100668.66;;;28.62;22.47
29941;BME280;16801;53.562;10.038;2023-04-22T13:20:53;100670.69;;;27.51;22.98
29941;BME280;16801;53.562;10.038;2023-04-22T13:24:15;100653.34;;;28.29;22.92
29941;BME280;16801;53.562;10.038;2023-04-22T13:27:36;100645.50;;;27.16;23.83
29941;BME280;16801;53.562;10.038;2023-04-22T13:30:58;100644.38;;;26.83;24.28
29941;BME280;16801;53.562;10.038;2023-04-22T13:34:19;100643.00;;;26.86;24.01
29941;BME280;16801;53.562;10.038;2023-04-22T13:37:40;100640.81;;;25.29;26.87
29941;BME280;16801;53.562;10.038;2023-04-22T13:41:01;100643.34;;;24.37;28.58
29941;BME280;16801;53.562;10.038;2023-04-22T13:44:22;100632.66;;;24.83;27.81
29941;BME280;16801;53.562;10.038;2023-04-22T13:47:45;100624.63;;;26.29;25.40
29941;BME280;16801;53.562;10.038;2023-04-22T13:51:06;100642.41;;;25.09;26.70
29941;BME280;16801;53.562;10.038;2023-04-22T13:54:27;100637.22;;;24.77;27.70
29941;BME280;16801;53.562;10.038;2023-04-22T13:57:49;100621.28;;;27.30;23.77
29941;BME280;16801;53.562;10.038;2023-04-22T14:01:10;100620.25;;;28.03;23.35
29941;BME280;16801;53.562;10.038;2023-04-22T14:04:32;100617.84;;;27.19;23.62
29941;BME280;16801;53.562;10.038;2023-04-22T14:07:53;100618.13;;;25.30;26.35
29941;BME280;16801;53.562;10.038;2023-04-22T14:11:14;100629.13;;;24.77;27.11
29941;BME280;16801;53.562;10.038;2023-04-22T14:14:35;100605.28;;;23.81;28.68
29941;BME280;16801;53.562;10.038;2023-04-22T14:17:56;100607.47;;;23.84;29.50
29941;BME280;16801;53.562;10.038;2023-04-22T14:21:18;100600.75;;;24.54;28.88
29941;BME280;16801;53.562;10.038;2023-04-22T14:24:39;100604.09;;;24.19;28.60
29941;BME280;16801;53.562;10.038;2023-04-22T14:28:00;100603.69;;;24.38;28.42
29941;BME280;16801;53.562;10.038;2023-04-22T14:31:22;100588.84;;;24.45;28.16
29941;BME280;16801;53.562;10.038;2023-04-22T14:34:43;100585.38;;;24.70;28.22
29941;BME280;16801;53.562;10.038;2023-04-22T14:38:09;100569.75;;;25.18;27.75
29941;BME280;16801;53.562;10.038;2023-04-22T14:41:30;100568.66;;;24.73;27.81
29941;BME280;16801;53.562;10.038;2023-04-22T14:44:50;100554.09;;;25.00;28.02
29941;BME280;16801;53.562;10.038;2023-04-22T14:48:12;100550.28;;;25.31;27.85
29941;BME280;16801;53.562;10.038;2023-04-22T14:51:33;100557.59;;;25.15;28.05
29941;BME280;16801;53.562;10.038;2023-04-22T14:54:57;100551.13;;;24.96;28.20
29941;BME280;16801;53.562;10.038;2023-04-22T14:58:18;100542.41;;;24.33;29.01
29941;BME280;16801;53.562;10.038;2023-04-22T15:01:40;100553.81;;;23.83;29.85
29941;BME280;16801;53.562;10.038;2023-04-22T15:05:02;100548.88;;;23.65;29.92
29941;BME280;16801;53.562;10.038;2023-04-22T15:08:22;100541.47;;;23.45;30.22
29941;BME280;16801;53.562;10.038;2023-04-22T15:11:45;100534.91;;;23.73;30.08
29941;BME280;16801;53.562;10.038;2023-04-22T15:15:07;100526.31;;;23.81;30.29
29941;BME280;16801;53.562;10.038;2023-04-22T15:18:29;100517.41;;;23.80;30.74
29941;BME280;16801;53.562;10.038;2023-04-22T15:21:51;100516.75;;;24.26;30.33
29941;BME280;16801;53.562;10.038;2023-04-22T15:25:12;100515.09;;;24.19;29.25
29941;BME280;16801;53.562;10.038;2023-04-22T15:28:34;100521.78;;;24.02;29.57
29941;BME280;16801;53.562;10.038;2023-04-22T15:31:55;100515.03;;;23.99;29.98
29941;BME280;16801;53.562;10.038;2023-04-22T15:35:16;100520.44;;;23.94;29.84
29941;BME280;16801;53.562;10.038;2023-04-22T15:38:38;100503.16;;;23.90;30.22
29941;BME280;16801;53.562;10.038;2023-04-22T15:41:59;100510.63;;;23.73;30.62
29941;BME280;16801;53.562;10.038;2023-04-22T15:45:21;100509.44;;;23.48;31.36
29941;BME280;16801;53.562;10.038;2023-04-22T15:48:42;100501.34;;;23.48;31.74
29941;BME280;16801;53.562;10.038;2023-04-22T15:52:05;100486.28;;;23.52;31.62
29941;BME280;16801;53.562;10.038;2023-04-22T15:55:26;100495.16;;;23.48;31.51
29941;BME280;16801;53.562;10.038;2023-04-22T15:58:47;100490.97;;;23.20;32.08
29941;BME280;16801;53.562;10.038;2023-04-22T16:02:10;100485.84;;;23.18;31.67
29941;BME280;16801;53.562;10.038;2023-04-22T16:05:31;100490.84;;;23.05;31.77
29941;BME280;16801;53.562;10.038;2023-04-22T16:08:53;100489.25;;;23.09;31.71
29941;BME280;16801;53.562;10.038;2023-04-22T16:12:14;100490.06;;;23.04;31.81
29941;BME280;16801;53.562;10.038;2023-04-22T16:15:35;100488.88;;;23.32;31.24
29941;BME280;16801;53.562;10.038;2023-04-22T16:18:58;100483.00;;;23.40;31.40
29941;BME280;16801;53.562;10.038;2023-04-22T16:22:19;100475.69;;;23.36;31.42
29941;BME280;16801;53.562;10.038;2023-04-22T16:25:40;100466.03;;;23.45;31.84
29941;BME280;16801;53.562;10.038;2023-04-22T16:29:01;100462.78;;;23.38;31.60
29941;BME280;16801;53.562;10.038;2023-04-22T16:32:22;100465.44;;;23.33;31.99
29941;BME280;16801;53.562;10.038;2023-04-22T16:35:45;100470.25;;;23.26;31.86
29941;BME280;16801;53.562;10.038;2023-04-22T16:39:05;100460.47;;;23.09;32.29
29941;BME280;16801;53.562;10.038;2023-04-22T16:42:26;100466.59;;;23.00;32.56
29941;BME280;16801;53.562;10.038;2023-04-22T16:45:47;100459.53;;;22.89;32.61
29941;BME280;16801;53.562;10.038;2023-04-22T16:49:08;100457.16;;;22.65;33.66
29941;BME280;16801;53.562;10.038;2023-04-22T16:52:31;100453.59;;;22.55;33.74
29941;BME280;16801;53.562;10.038;2023-04-22T16:55:52;100462.84;;;22.37;33.42
29941;BME280;16801;53.562;10.038;2023-04-22T16:59:13;100452.91;;;22.37;33.61
29941;BME280;16801;53.562;10.038;2023-04-22T17:02:34;100446.06;;;22.25;33.88
29941;BME280;16801;53.562;10.038;2023-04-22T17:05:55;100432.63;;;22.25;33.90
29941;BME280;16801;53.562;10.038;2023-04-22T17:09:17;100434.69;;;22.17;34.13
29941;BME280;16801;53.562;10.038;2023-04-22T17:12:38;100434.69;;;22.12;33.85
29941;BME280;16801;53.562;10.038;2023-04-22T17:15:59;100438.31;;;22.01;34.52
29941;BME280;16801;53.562;10.038;2023-04-22T17:19:20;100445.38;;;21.86;34.26
29941;BME280;16801;53.562;10.038;2023-04-22T17:22:41;100438.91;;;21.81;34.94
29941;BME280;16801;53.562;10.038;2023-04-22T17:26:03;100438.53;;;21.73;34.87
29941;BME280;16801;53.562;10.038;2023-04-22T17:29:24;100433.59;;;21.65;35.44